Airport ICAO


23:12 UTC

6°C

No significant clouds


An affordable passengers' Moving Map for your aircraft. Made for the iPad and the iPhone
More information here

LFPT Cormeilles En Vexin


Pontoise FRANCE   VFR


METAR LFPT 132300Z AUTO 00000KT 9000 NSC 06/05 Q1029 0h12min





NOTAMS

OPEN